QFA1 YSSY-WSSS
Flight info
| Callsign | QFA1 |
|---|---|
| Flight time | N/A |
| Altitude | 36000 |
| Route | KADOM A576 AS/N0491F380 A587 ONOXA G326 BLI M635 SURGA T23 UGEBO UGEBO1A |
| Aircraft | A388/J-SADE2E3FGHIJ3J4J5M1RWXY/LB1D1 |
Departure
| Time | 2026-04-30 11:19 |
|---|---|
| Airport | Sydney Kingsford Smith International Airport (YSSY) |
Arrival
| Time | N/A |
|---|---|
| Airport | Singapore Changi Airport (WSSS) |
| Time | Latitude | Longitude | Altitude | Speed | Heading |
|---|---|---|---|---|---|
| 2026-04-30 10:55 | -33.93401 | 151.16775 | 35 ft | 0 kts | 258° |
| 2026-04-30 11:05 | -33.93397 | 151.16800 | 35 ft | 4 kts | 258° |
| 2026-04-30 11:05 | -33.93391 | 151.16832 | 31 ft | 4 kts | 258° |
| 2026-04-30 11:06 | -33.93386 | 151.16861 | 33 ft | 4 kts | 255° |
| 2026-04-30 11:06 | -33.93374 | 151.16882 | 31 ft | 4 kts | 187° |
| 2026-04-30 11:06 | -33.93348 | 151.16879 | 34 ft | 4 kts | 166° |
| 2026-04-30 11:06 | -33.93340 | 151.16876 | 33 ft | 1 kts | 166° |
| 2026-04-30 11:09 | -33.93349 | 151.16879 | 35 ft | 5 kts | 165° |
| 2026-04-30 11:09 | -33.93392 | 151.16893 | 35 ft | 8 kts | 166° |
| 2026-04-30 11:10 | -33.93434 | 151.16904 | 35 ft | 11 kts | 168° |
| 2026-04-30 11:10 | -33.93498 | 151.16932 | 35 ft | 0 kts | 144° |
| 2026-04-30 11:10 | -33.93501 | 151.16934 | 34 ft | 3 kts | 144° |
| 2026-04-30 11:10 | -33.93504 | 151.16937 | 34 ft | 1 kts | 143° |
| 2026-04-30 11:11 | -33.93511 | 151.16944 | 35 ft | 2 kts | 135° |
| 2026-04-30 11:11 | -33.93521 | 151.16968 | 35 ft | 5 kts | 99° |
| 2026-04-30 11:11 | -33.93514 | 151.17010 | 35 ft | 7 kts | 71° |
| 2026-04-30 11:11 | -33.93510 | 151.17072 | 34 ft | 7 kts | 116° |
| 2026-04-30 11:12 | -33.93556 | 151.17113 | 34 ft | 12 kts | 161° |
| 2026-04-30 11:12 | -33.93645 | 151.17142 | 34 ft | 14 kts | 166° |
| 2026-04-30 11:12 | -33.93750 | 151.17170 | 34 ft | 17 kts | 167° |
| 2026-04-30 11:12 | -33.93873 | 151.17201 | 34 ft | 20 kts | 168° |
| 2026-04-30 11:13 | -33.94011 | 151.17237 | 34 ft | 21 kts | 165° |
| 2026-04-30 11:13 | -33.94159 | 151.17274 | 33 ft | 22 kts | 167° |
| 2026-04-30 11:13 | -33.94305 | 151.17312 | 35 ft | 21 kts | 168° |
| 2026-04-30 11:13 | -33.94453 | 151.17351 | 35 ft | 22 kts | 168° |
| 2026-04-30 11:14 | -33.94604 | 151.17390 | 35 ft | 22 kts | 168° |
| 2026-04-30 11:14 | -33.94759 | 151.17429 | 35 ft | 23 kts | 168° |
| 2026-04-30 11:14 | -33.94917 | 151.17470 | 34 ft | 23 kts | 168° |
| 2026-04-30 11:14 | -33.95077 | 151.17512 | 34 ft | 24 kts | 167° |
| 2026-04-30 11:15 | -33.95239 | 151.17555 | 34 ft | 24 kts | 167° |
| 2026-04-30 11:15 | -33.95409 | 151.17599 | 34 ft | 27 kts | 168° |
| 2026-04-30 11:15 | -33.95585 | 151.17644 | 35 ft | 25 kts | 167° |
| 2026-04-30 11:15 | -33.95754 | 151.17689 | 35 ft | 25 kts | 168° |
| 2026-04-30 11:16 | -33.95924 | 151.17732 | 35 ft | 25 kts | 168° |
| 2026-04-30 11:16 | -33.96092 | 151.17774 | 35 ft | 25 kts | 168° |
| 2026-04-30 11:16 | -33.96259 | 151.17818 | 35 ft | 25 kts | 167° |
| 2026-04-30 11:16 | -33.96327 | 151.17836 | 35 ft | 2 kts | 167° |
| 2026-04-30 11:17 | -33.96362 | 151.17846 | 35 ft | 8 kts | 166° |
| 2026-04-30 11:17 | -33.96418 | 151.17877 | 35 ft | 10 kts | 133° |
| 2026-04-30 11:17 | -33.96434 | 151.17926 | 35 ft | 0 kts | 73° |
| 2026-04-30 11:17 | -33.96430 | 151.17943 | 35 ft | 5 kts | 77° |
| 2026-04-30 11:18 | -33.96421 | 151.17997 | 35 ft | 8 kts | 78° |
| 2026-04-30 11:18 | -33.96343 | 151.18044 | 34 ft | 12 kts | 349° |
| 2026-04-30 11:18 | -33.96315 | 151.18037 | 34 ft | 19 kts | 348° |
| 2026-04-30 11:19 | -33.95923 | 151.17934 | 33 ft | 93 kts | 347° |
| 2026-04-30 11:19 | -33.95098 | 151.17720 | 32 ft | 146 kts | 348° |
| 2026-04-30 11:19 | -33.94009 | 151.17430 | 177 ft | 165 kts | 349° |
| 2026-04-30 11:19 | -33.92950 | 151.17038 | 738 ft | 160 kts | 335° |
| 2026-04-30 11:20 | -33.92173 | 151.16017 | 1048 ft | 176 kts | 297° |
| 2026-04-30 11:20 | -33.91771 | 151.14595 | 1448 ft | 179 kts | 290° |
| 2026-04-30 11:20 | -33.91363 | 151.13162 | 1749 ft | 187 kts | 296° |
| 2026-04-30 11:20 | -33.90796 | 151.11706 | 1859 ft | 198 kts | 301° |
| 2026-04-30 11:21 | -33.90093 | 151.10230 | 1975 ft | 209 kts | 304° |
| 2026-04-30 11:21 | -33.89292 | 151.08703 | 2097 ft | 222 kts | 306° |
| 2026-04-30 11:21 | -33.88454 | 151.07022 | 2259 ft | 248 kts | 294° |
| 2026-04-30 11:21 | -33.87939 | 151.04975 | 2666 ft | 262 kts | 287° |
| 2026-04-30 11:22 | -33.87483 | 151.02819 | 3233 ft | 270 kts | 286° |
| 2026-04-30 11:22 | -33.87021 | 151.00617 | 4049 ft | 270 kts | 286° |
| 2026-04-30 11:22 | -33.86549 | 150.98421 | 4836 ft | 272 kts | 286° |
| 2026-04-30 11:22 | -33.86062 | 150.96197 | 5572 ft | 275 kts | 286° |
| 2026-04-30 11:23 | -33.85565 | 150.93957 | 6316 ft | 279 kts | 286° |
| 2026-04-30 11:23 | -33.85058 | 150.91686 | 7035 ft | 283 kts | 286° |
| 2026-04-30 11:23 | -33.84028 | 150.87085 | 8475 ft | 288 kts | 286° |
| 2026-04-30 11:24 | -33.83504 | 150.84750 | 9196 ft | 290 kts | 287° |
| 2026-04-30 11:24 | -33.82976 | 150.82397 | 9924 ft | 293 kts | 287° |
| 2026-04-30 11:24 | -33.82436 | 150.79997 | 10406 ft | 306 kts | 287° |
| 2026-04-30 11:25 | -33.81252 | 150.74749 | 10795 ft | 342 kts | 286° |
| 2026-04-30 11:25 | -33.80625 | 150.71964 | 11314 ft | 346 kts | 286° |
| 2026-04-30 11:25 | -33.79362 | 150.66349 | 12551 ft | 350 kts | 286° |
| 2026-04-30 11:26 | -33.78075 | 150.60657 | 13763 ft | 356 kts | 286° |
| 2026-04-30 11:26 | -33.77425 | 150.57785 | 14359 ft | 358 kts | 286° |
| 2026-04-30 11:26 | -33.76767 | 150.54884 | 14879 ft | 361 kts | 286° |
| 2026-04-30 11:27 | -33.76101 | 150.51955 | 15389 ft | 364 kts | 286° |
| 2026-04-30 11:27 | -33.75430 | 150.49005 | 15905 ft | 367 kts | 286° |
| 2026-04-30 11:27 | -33.74755 | 150.46036 | 16411 ft | 370 kts | 286° |
| 2026-04-30 11:27 | -33.74073 | 150.43044 | 16893 ft | 374 kts | 286° |
| 2026-04-30 11:28 | -33.72687 | 150.36975 | 17874 ft | 380 kts | 286° |
| 2026-04-30 11:28 | -33.71983 | 150.33900 | 18383 ft | 383 kts | 285° |
| 2026-04-30 11:28 | -33.71276 | 150.30810 | 18837 ft | 386 kts | 285° |
| 2026-04-30 11:29 | -33.70476 | 150.27726 | 19248 ft | 388 kts | 289° |
| 2026-04-30 11:29 | -33.69628 | 150.24644 | 19640 ft | 391 kts | 289° |
| 2026-04-30 11:29 | -33.67935 | 150.18397 | 20443 ft | 396 kts | 288° |
| 2026-04-30 11:30 | -33.66220 | 150.12079 | 21295 ft | 400 kts | 288° |
| 2026-04-30 11:30 | -33.65353 | 150.08896 | 21664 ft | 403 kts | 289° |
| 2026-04-30 11:30 | -33.64478 | 150.05691 | 22077 ft | 405 kts | 288° |
| 2026-04-30 11:31 | -33.63587 | 150.02431 | 22496 ft | 407 kts | 288° |
| 2026-04-30 11:31 | -33.62711 | 149.99231 | 22869 ft | 410 kts | 288° |
| 2026-04-30 11:31 | -33.61819 | 149.95978 | 23251 ft | 412 kts | 288° |
| 2026-04-30 11:31 | -33.60920 | 149.92699 | 23633 ft | 415 kts | 288° |
| 2026-04-30 11:32 | -33.60015 | 149.89410 | 24024 ft | 417 kts | 289° |
| 2026-04-30 11:32 | -33.58794 | 149.86254 | 24329 ft | 419 kts | 300° |
| 2026-04-30 11:32 | -33.57363 | 149.83198 | 24642 ft | 420 kts | 300° |
| 2026-04-30 11:33 | -33.54487 | 149.77052 | 25309 ft | 424 kts | 299° |
| 2026-04-30 11:33 | -33.53046 | 149.73950 | 25616 ft | 427 kts | 299° |
| 2026-04-30 11:33 | -33.51600 | 149.70831 | 25953 ft | 429 kts | 299° |
| 2026-04-30 11:33 | -33.50146 | 149.67696 | 26289 ft | 432 kts | 299° |
| 2026-04-30 11:34 | -33.48683 | 149.64542 | 26646 ft | 434 kts | 299° |
| 2026-04-30 11:34 | -33.47210 | 149.61370 | 26972 ft | 437 kts | 299° |
| 2026-04-30 11:34 | -33.45734 | 149.58192 | 27445 ft | 437 kts | 299° |
| 2026-04-30 11:34 | -33.44248 | 149.54999 | 27844 ft | 439 kts | 299° |
| 2026-04-30 11:35 | -33.42761 | 149.51805 | 28175 ft | 443 kts | 298° |
| 2026-04-30 11:35 | -33.41231 | 149.48521 | 28575 ft | 445 kts | 298° |
| 2026-04-30 11:35 | -33.39733 | 149.45313 | 28958 ft | 448 kts | 298° |
| 2026-04-30 11:35 | -33.38208 | 149.42048 | 29361 ft | 451 kts | 299° |
| 2026-04-30 11:36 | -33.36657 | 149.38734 | 29774 ft | 453 kts | 298° |
| 2026-04-30 11:36 | -33.35112 | 149.35434 | 30179 ft | 456 kts | 298° |
| 2026-04-30 11:36 | -33.33553 | 149.32110 | 30531 ft | 459 kts | 298° |
| 2026-04-30 11:36 | -33.31991 | 149.28782 | 30905 ft | 461 kts | 298° |
| 2026-04-30 11:37 | -33.30419 | 149.25436 | 31271 ft | 462 kts | 298° |
| 2026-04-30 11:37 | -33.28839 | 149.22076 | 31638 ft | 464 kts | 298° |
| 2026-04-30 11:37 | -33.27253 | 149.18706 | 31989 ft | 466 kts | 298° |
| 2026-04-30 11:37 | -33.25660 | 149.15323 | 32342 ft | 468 kts | 298° |
| 2026-04-30 11:38 | -33.24061 | 149.11931 | 32689 ft | 470 kts | 298° |
| 2026-04-30 11:38 | -33.22406 | 149.08423 | 33039 ft | 473 kts | 298° |
| 2026-04-30 11:38 | -33.20807 | 149.05039 | 33370 ft | 475 kts | 298° |
| 2026-04-30 11:38 | -33.19182 | 149.01604 | 33784 ft | 475 kts | 298° |
| 2026-04-30 11:39 | -33.17555 | 148.98167 | 34140 ft | 477 kts | 298° |
| 2026-04-30 11:39 | -33.15900 | 148.94673 | 34446 ft | 479 kts | 298° |
| 2026-04-30 11:39 | -33.14277 | 148.91250 | 34736 ft | 481 kts | 298° |
| 2026-04-30 11:39 | -33.12602 | 148.87721 | 35044 ft | 483 kts | 298° |
| 2026-04-30 11:40 | -33.10969 | 148.84284 | 35418 ft | 483 kts | 298° |
| 2026-04-30 11:40 | -33.09291 | 148.80757 | 35839 ft | 481 kts | 298° |
| 2026-04-30 11:40 | -33.07643 | 148.77296 | 36273 ft | 480 kts | 298° |
| 2026-04-30 11:40 | -33.06012 | 148.73872 | 36405 ft | 484 kts | 298° |
| 2026-04-30 11:41 | -33.02692 | 148.66915 | 36398 ft | 479 kts | 298° |